createdAt,value
2023-05-18T00:03:17.274Z,100031.50
2023-05-18T00:07:34.459Z,100025.16
2023-05-18T00:11:46.956Z,100035.03
2023-05-18T00:15:59.493Z,100026.97
2023-05-18T00:20:12.606Z,100025.97
2023-05-18T00:24:25.058Z,100042.56
2023-05-18T00:28:37.400Z,100034.81
2023-05-18T00:32:49.786Z,100033.22
2023-05-18T00:37:02.174Z,100038.41
2023-05-18T00:41:14.598Z,100038.34
2023-05-18T00:45:27.637Z,100041.16
2023-05-18T00:49:40.064Z,100033.19
2023-05-18T00:53:54.694Z,100032.38
2023-05-18T00:58:07.405Z,100024.38
2023-05-18T01:02:23.151Z,100019.84
2023-05-18T01:06:36.566Z,100026.47
2023-05-18T01:10:56.746Z,100023.38
2023-05-18T01:15:14.073Z,100021.00
2023-05-18T01:19:59.840Z,100019.97
2023-05-18T01:24:19.457Z,100018.38
2023-05-18T01:28:33.812Z,100016.69
2023-05-18T01:32:47.297Z,100016.91
2023-05-18T01:36:59.882Z,100010.00
2023-05-18T01:41:21.593Z,100014.44
2023-05-18T01:45:38.026Z,100009.97
2023-05-18T01:50:17.449Z,100014.56
2023-05-18T01:54:32.033Z,100010.91
2023-05-18T01:58:44.753Z,100003.81
2023-05-18T02:02:57.411Z,100001.41
2023-05-18T02:07:09.854Z,99998.94
2023-05-18T02:11:22.237Z,100015.16
2023-05-18T02:15:34.668Z,100012.72
2023-05-18T02:19:47.027Z,100005.28
2023-05-18T02:24:00.797Z,99993.81
2023-05-18T02:28:13.169Z,100002.81
2023-05-18T02:32:25.720Z,100002.34
2023-05-18T02:36:40.485Z,100005.72
2023-05-18T02:40:53.040Z,99998.00
2023-05-18T02:45:06.295Z,100001.53
2023-05-18T02:49:19.171Z,100008.66
2023-05-18T02:53:32.087Z,100017.91
2023-05-18T02:57:50.319Z,100016.41
2023-05-18T03:02:08.026Z,100016.69
2023-05-18T03:06:26.913Z,100015.13
2023-05-18T03:10:40.815Z,100020.34
2023-05-18T03:14:53.320Z,100018.47
2023-05-18T03:19:05.734Z,100021.81
2023-05-18T03:23:22.330Z,100029.38
2023-05-18T03:27:35.798Z,100023.94
2023-05-18T03:31:48.680Z,100031.72
2023-05-18T03:36:04.262Z,100046.16
2023-05-18T03:40:18.043Z,100050.28
2023-05-18T03:44:32.554Z,100051.41
2023-05-18T03:48:45.215Z,100052.97
2023-05-18T03:52:59.614Z,100056.38
2023-05-18T03:57:11.946Z,100059.00
2023-05-18T04:01:25.392Z,100064.09
2023-05-18T04:05:37.716Z,100072.75
2023-05-18T04:09:52.337Z,100075.94
2023-05-18T04:14:05.589Z,100079.28
2023-05-18T04:18:18.017Z,100079.16
2023-05-18T04:22:31.575Z,100072.34
2023-05-18T04:26:44.064Z,100071.06
2023-05-18T04:30:56.589Z,100085.56
2023-05-18T04:35:11.278Z,100085.38
2023-05-18T04:39:25.676Z,100082.53
2023-05-18T04:43:38.811Z,100086.91
2023-05-18T04:47:54.362Z,100097.84
2023-05-18T04:52:10.578Z,100099.03
2023-05-18T04:56:23.532Z,100100.28
2023-05-18T05:00:35.928Z,100105.78
2023-05-18T05:04:48.520Z,100110.53
2023-05-18T05:09:00.982Z,100113.41
2023-05-18T05:13:13.468Z,100123.84
2023-05-18T05:17:26.952Z,100126.63
2023-05-18T05:21:40.549Z,100135.78
2023-05-18T05:25:53.126Z,100138.19
2023-05-18T05:30:07.649Z,100133.34
2023-05-18T05:34:21.995Z,100140.69
2023-05-18T05:38:34.780Z,100149.75
2023-05-18T05:42:47.299Z,100151.75
2023-05-18T05:46:59.741Z,100159.63
2023-05-18T05:51:12.844Z,100162.84
2023-05-18T05:55:25.510Z,100150.53
2023-05-18T05:59:38.826Z,100158.97
2023-05-18T06:03:52.256Z,100163.97
2023-05-18T06:08:05.236Z,100163.28
2023-05-18T06:12:17.935Z,100157.69
2023-05-18T06:16:30.588Z,100167.97
2023-05-18T06:20:45.330Z,100169.06
2023-05-18T06:24:59.882Z,100164.06
2023-05-18T06:29:28.568Z,100160.03
2023-05-18T06:33:46.648Z,100170.44
2023-05-18T06:38:00.686Z,100169.09
2023-05-18T06:42:13.143Z,100174.59
2023-05-18T06:46:35.682Z,100179.88
2023-05-18T06:50:54.128Z,100178.59
2023-05-18T06:55:07.946Z,100178.59
2023-05-18T06:59:20.683Z,100189.78
2023-05-18T07:03:33.394Z,100190.03
2023-05-18T07:07:45.918Z,100191.38
2023-05-18T07:11:58.423Z,100192.16
2023-05-18T07:16:10.913Z,100191.53
2023-05-18T07:20:25.970Z,100184.69
2023-05-18T07:24:38.808Z,100185.47
2023-05-18T07:28:51.926Z,100181.91
2023-05-18T07:33:04.774Z,100178.66
2023-05-18T07:37:17.492Z,100175.88
2023-05-18T07:41:31.488Z,100182.78
2023-05-18T07:45:43.948Z,100172.38
2023-05-18T07:49:56.589Z,100184.41
2023-05-18T07:54:09.398Z,100179.81
2023-05-18T07:58:21.863Z,100168.66
2023-05-18T08:02:36.065Z,100168.59
2023-05-18T08:06:48.409Z,100170.31
2023-05-18T08:11:00.884Z,100171.28
2023-05-18T08:15:13.337Z,100169.47
2023-05-18T08:19:26.305Z,100162.41
2023-05-18T08:23:39.380Z,100163.63
2023-05-18T08:27:51.765Z,100163.94
2023-05-18T08:32:07.413Z,100165.53
2023-05-18T08:36:20.025Z,100164.22
2023-05-18T08:40:47.874Z,100167.41
2023-05-18T08:45:13.470Z,100170.00
2023-05-18T08:49:27.665Z,100168.91
2023-05-18T08:53:43.541Z,100168.78
2023-05-18T08:57:58.341Z,100166.66
2023-05-18T09:02:10.936Z,100169.72
2023-05-18T09:06:26.568Z,100171.25
2023-05-18T09:10:40.220Z,100174.47
2023-05-18T09:14:53.959Z,100177.28
2023-05-18T09:19:06.853Z,100185.09
2023-05-18T09:23:19.308Z,100176.22
2023-05-18T09:27:33.271Z,100169.88
2023-05-18T09:31:47.035Z,100172.59
2023-05-18T09:35:59.551Z,100173.19
2023-05-18T09:40:12.422Z,100162.88
2023-05-18T09:44:37.294Z,100179.19
2023-05-18T09:48:51.787Z,100179.81
2023-05-18T09:53:08.659Z,100174.25
2023-05-18T09:57:22.405Z,100173.28
2023-05-18T10:01:35.191Z,100181.41
2023-05-18T10:05:48.332Z,100184.63
2023-05-18T10:10:05.082Z,100178.16
2023-05-18T10:14:25.838Z,100184.91
2023-05-18T10:18:39.096Z,100184.72
2023-05-18T10:22:52.674Z,100184.44
2023-05-18T10:27:10.536Z,100186.44
2023-05-18T10:31:24.990Z,100185.41
2023-05-18T10:35:39.366Z,100179.59
2023-05-18T10:39:55.158Z,100178.13
2023-05-18T10:44:08.306Z,100179.91
2023-05-18T10:48:22.566Z,100168.34
2023-05-18T10:52:37.889Z,100182.31
2023-05-18T10:56:54.186Z,100178.84
2023-05-18T11:01:11.002Z,100178.34
2023-05-18T11:05:27.188Z,100184.31
2023-05-18T11:09:43.723Z,100186.66
2023-05-18T11:14:04.278Z,100180.56
2023-05-18T11:18:16.833Z,100180.16
2023-05-18T11:22:51.793Z,100178.66
2023-05-18T11:27:16.672Z,100185.19
2023-05-18T11:31:45.924Z,100180.44
2023-05-18T11:36:15.164Z,100192.97
2023-05-18T11:40:47.144Z,100192.44
2023-05-18T11:45:09.898Z,100180.84
2023-05-18T11:49:27.624Z,100178.03
2023-05-18T11:53:41.700Z,100180.91
2023-05-18T11:57:54.483Z,100180.91
2023-05-18T12:02:07.799Z,100195.16
2023-05-18T12:06:21.463Z,100190.84
2023-05-18T12:10:36.970Z,100190.34
2023-05-18T12:15:00.521Z,100181.16
2023-05-18T12:19:12.902Z,100179.28
2023-05-18T12:23:41.119Z,100172.41
2023-05-18T12:27:54.918Z,100172.78
2023-05-18T12:32:12.204Z,100185.63
2023-05-18T12:36:24.760Z,100188.41
2023-05-18T12:40:45.017Z,100177.06
2023-05-18T12:44:57.565Z,100175.69
2023-05-18T12:49:10.783Z,100182.09
2023-05-18T12:53:24.543Z,100179.63
2023-05-18T12:57:41.771Z,100175.53
2023-05-18T13:01:59.032Z,100177.19
2023-05-18T13:06:12.974Z,100183.56
2023-05-18T13:10:25.428Z,100173.50
2023-05-18T13:14:38.863Z,100176.75
2023-05-18T13:19:02.227Z,100171.44
2023-05-18T13:23:34.793Z,100165.88
2023-05-18T13:27:49.049Z,100169.19
2023-05-18T13:32:01.512Z,100171.16
2023-05-18T13:36:14.102Z,100156.28
2023-05-18T13:40:26.478Z,100164.75
2023-05-18T13:44:38.790Z,100160.50
2023-05-18T13:48:51.272Z,100163.75
2023-05-18T13:53:03.711Z,100169.97
2023-05-18T13:57:16.583Z,100163.91
2023-05-18T14:01:32.985Z,100177.28
2023-05-18T14:05:45.382Z,100180.72
2023-05-18T14:09:57.643Z,100164.91
2023-05-18T14:14:09.984Z,100160.84
2023-05-18T14:18:22.552Z,100159.94
2023-05-18T14:22:35.473Z,100164.97
2023-05-18T14:26:48.063Z,100168.75
2023-05-18T14:31:01.329Z,100162.88
2023-05-18T14:35:16.351Z,100176.25
2023-05-18T14:39:29.004Z,100171.09
2023-05-18T14:43:41.420Z,100182.28
2023-05-18T14:47:54.286Z,100178.59
2023-05-18T14:52:06.951Z,100173.88
2023-05-18T14:56:22.127Z,100184.72
2023-05-18T15:00:34.603Z,100180.59
2023-05-18T15:04:47.194Z,100171.97
2023-05-18T15:08:59.642Z,100184.63
2023-05-18T15:13:12.045Z,100178.66
2023-05-18T15:17:24.697Z,100184.25
2023-05-18T15:21:37.096Z,100194.38
2023-05-18T15:25:51.761Z,100194.16
2023-05-18T15:30:11.746Z,100203.88
2023-05-18T15:34:24.522Z,100208.56
2023-05-18T15:38:39.850Z,100201.91
2023-05-18T15:42:52.480Z,100205.91
2023-05-18T15:47:05.508Z,100203.38
2023-05-18T15:51:18.133Z,100198.50
2023-05-18T15:55:30.690Z,100205.75
2023-05-18T15:59:43.991Z,100212.03
2023-05-18T16:03:56.488Z,100216.91
2023-05-18T16:08:09.173Z,100222.69
2023-05-18T16:12:21.889Z,100231.09
2023-05-18T16:16:34.294Z,100234.75
2023-05-18T16:20:47.088Z,100239.78
2023-05-18T16:24:59.611Z,100242.09
2023-05-18T16:29:12.100Z,100247.06
2023-05-18T16:33:25.934Z,100249.69
2023-05-18T16:37:42.612Z,100241.84
2023-05-18T16:41:55.053Z,100242.28
2023-05-18T16:46:07.594Z,100256.59
2023-05-18T16:50:20.150Z,100268.31
2023-05-18T16:54:33.965Z,100268.31
2023-05-18T16:58:52.324Z,100269.75
2023-05-18T17:03:05.219Z,100268.81
2023-05-18T17:07:18.114Z,100270.91
2023-05-18T17:11:30.686Z,100269.59
2023-05-18T17:15:43.588Z,100272.53
2023-05-18T17:19:56.217Z,100281.19
2023-05-18T17:24:08.988Z,100283.53
2023-05-18T17:28:21.478Z,100287.13
2023-05-18T17:32:34.089Z,100292.00
2023-05-18T17:36:46.971Z,100293.44
2023-05-18T17:40:59.589Z,100290.25
2023-05-18T17:45:12.332Z,100296.22
2023-05-18T17:49:24.949Z,100288.75
2023-05-18T17:53:42.277Z,100295.75
2023-05-18T17:57:54.719Z,100299.28
2023-05-18T18:02:07.573Z,100302.09
2023-05-18T18:06:23.078Z,100297.28
2023-05-18T18:10:36.171Z,100303.66
2023-05-18T18:14:48.657Z,100302.53
2023-05-18T18:19:01.061Z,100306.72
2023-05-18T18:23:14.342Z,100309.03
2023-05-18T18:27:26.830Z,100315.97
2023-05-18T18:31:39.507Z,100319.28
2023-05-18T18:35:57.013Z,100327.81
2023-05-18T18:40:11.709Z,100332.25
2023-05-18T18:44:24.549Z,100336.50
2023-05-18T18:48:37.045Z,100332.16
2023-05-18T18:52:51.260Z,100346.66
2023-05-18T18:57:04.392Z,100349.22
2023-05-18T19:01:17.154Z,100345.41
2023-05-18T19:05:31.451Z,100355.97
2023-05-18T19:09:44.371Z,100361.59
2023-05-18T19:13:56.905Z,100372.53
2023-05-18T19:18:09.458Z,100369.09
2023-05-18T19:22:22.115Z,100371.75
2023-05-18T19:26:35.103Z,100369.31
2023-05-18T19:30:48.525Z,100371.13
2023-05-18T19:35:01.193Z,100370.31
2023-05-18T19:39:16.982Z,100378.09
2023-05-18T19:43:29.588Z,100372.78
2023-05-18T19:47:41.998Z,100381.78
2023-05-18T19:51:54.542Z,100380.97
2023-05-18T19:56:07.090Z,100385.66
2023-05-18T20:00:19.693Z,100389.97
2023-05-18T20:04:33.844Z,100399.31
2023-05-18T20:08:46.458Z,100398.34
2023-05-18T20:12:59.162Z,100399.81
2023-05-18T20:17:11.601Z,100405.44
2023-05-18T20:21:24.210Z,100411.56
2023-05-18T20:25:37.427Z,100410.03
2023-05-18T20:29:49.957Z,100404.00
2023-05-18T20:34:02.471Z,100423.53
2023-05-18T20:38:15.116Z,100419.44
2023-05-18T20:42:40.830Z,100424.53
2023-05-18T20:46:54.692Z,100414.66
2023-05-18T20:51:15.236Z,100418.94
2023-05-18T20:55:29.232Z,100420.56
2023-05-18T20:59:41.648Z,100428.38
2023-05-18T21:03:54.822Z,100424.97
2023-05-18T21:08:07.665Z,100420.78
2023-05-18T21:12:20.414Z,100418.75
2023-05-18T21:16:33.004Z,100422.41
2023-05-18T21:20:45.592Z,100423.47
2023-05-18T21:24:58.327Z,100416.50
2023-05-18T21:29:10.930Z,100414.88
2023-05-18T21:33:23.936Z,100420.38
2023-05-18T21:37:37.215Z,100414.03
2023-05-18T21:41:49.727Z,100410.13
2023-05-18T21:46:04.383Z,100415.50
2023-05-18T21:50:18.301Z,100417.72
2023-05-18T21:54:35.093Z,100423.00
2023-05-18T21:58:47.494Z,100415.84
2023-05-18T22:03:00.125Z,100412.50
2023-05-18T22:07:14.229Z,100417.66
2023-05-18T22:11:27.001Z,100425.75
2023-05-18T22:15:41.443Z,100418.00
2023-05-18T22:19:54.098Z,100419.00
2023-05-18T22:24:06.741Z,100419.44
2023-05-18T22:28:22.119Z,100412.50
2023-05-18T22:32:35.106Z,100419.53
2023-05-18T22:36:47.773Z,100419.09
2023-05-18T22:41:00.276Z,100418.03
2023-05-18T22:45:12.694Z,100420.06
2023-05-18T22:49:28.380Z,100420.28
2023-05-18T22:53:41.147Z,100418.13
2023-05-18T22:57:53.540Z,100425.66
2023-05-18T23:02:06.535Z,100429.09
2023-05-18T23:06:22.487Z,100431.53
2023-05-18T23:10:35.086Z,100423.69
2023-05-18T23:14:50.133Z,100430.06
2023-05-18T23:19:02.653Z,100424.22
2023-05-18T23:23:15.334Z,100419.88
2023-05-18T23:27:28.212Z,100415.75
2023-05-18T23:31:41.706Z,100408.34
2023-05-18T23:35:56.086Z,100415.00
2023-05-18T23:40:14.584Z,100415.03
2023-05-18T23:44:27.932Z,100402.22
2023-05-18T23:48:40.775Z,100404.03
2023-05-18T23:52:54.521Z,100396.97
2023-05-18T23:57:07.911Z,100410.78
